sensor_id;sensor_type;location;lat;lon;timestamp;pressure;altitude;pressure_sealevel;temperature;humidity
6389;BME280;3227;42.654;23.360;2023-03-15T00:01:58;93457.50;;;9.18;38.32
6389;BME280;3227;42.654;23.360;2023-03-15T00:04:24;93451.41;;;9.26;37.64
6389;BME280;3227;42.654;23.360;2023-03-15T00:06:51;93447.16;;;9.25;37.67
6389;BME280;3227;42.654;23.360;2023-03-15T00:09:18;93413.25;;;9.12;37.83
6389;BME280;3227;42.654;23.360;2023-03-15T00:11:46;93444.53;;;9.31;37.32
6389;BME280;3227;42.654;23.360;2023-03-15T00:14:14;93436.91;;;9.30;37.60
6389;BME280;3227;42.654;23.360;2023-03-15T00:16:42;93436.94;;;9.25;37.42
6389;BME280;3227;42.654;23.360;2023-03-15T00:19:09;93441.16;;;9.29;38.02
6389;BME280;3227;42.654;23.360;2023-03-15T00:21:36;93443.59;;;9.38;38.00
6389;BME280;3227;42.654;23.360;2023-03-15T00:24:04;93444.25;;;9.52;37.80
6389;BME280;3227;42.654;23.360;2023-03-15T00:26:31;93446.84;;;9.49;36.71
6389;BME280;3227;42.654;23.360;2023-03-15T00:28:58;93448.75;;;9.35;37.42
6389;BME280;3227;42.654;23.360;2023-03-15T00:31:29;93444.69;;;9.21;37.83
6389;BME280;3227;42.654;23.360;2023-03-15T00:33:56;93444.72;;;9.14;38.37
6389;BME280;3227;42.654;23.360;2023-03-15T00:36:23;93441.38;;;9.14;38.66
6389;BME280;3227;42.654;23.360;2023-03-15T00:38:51;93420.19;;;9.04;38.39
6389;BME280;3227;42.654;23.360;2023-03-15T00:41:20;93426.03;;;9.12;38.59
6389;BME280;3227;42.654;23.360;2023-03-15T00:43:47;93401.69;;;8.83;38.61
6389;BME280;3227;42.654;23.360;2023-03-15T00:46:16;93434.59;;;9.10;39.39
6389;BME280;3227;42.654;23.360;2023-03-15T00:48:48;93439.81;;;8.98;42.48
6389;BME280;3227;42.654;23.360;2023-03-15T00:51:16;93423.88;;;8.79;44.28
6389;BME280;3227;42.654;23.360;2023-03-15T00:53:44;93432.47;;;8.70;45.65
6389;BME280;3227;42.654;23.360;2023-03-15T00:56:14;93424.81;;;8.70;45.98
6389;BME280;3227;42.654;23.360;2023-03-15T00:58:42;93416.31;;;8.71;46.33
6389;BME280;3227;42.654;23.360;2023-03-15T01:01:10;93418.81;;;8.73;46.52
6389;BME280;3227;42.654;23.360;2023-03-15T01:03:38;93330.91;;;8.17;47.11
6389;BME280;3227;42.654;23.360;2023-03-15T01:06:09;93412.16;;;8.63;46.91
6389;BME280;3227;42.654;23.360;2023-03-15T01:08:36;93404.41;;;8.67;46.94
6389;BME280;3227;42.654;23.360;2023-03-15T01:11:04;93406.09;;;8.70;46.82
6389;BME280;3227;42.654;23.360;2023-03-15T01:13:32;93398.44;;;8.71;47.37
6389;BME280;3227;42.654;23.360;2023-03-15T01:15:59;93406.13;;;8.65;47.56
6389;BME280;3227;42.654;23.360;2023-03-15T01:18:26;93403.63;;;8.64;47.89
6389;BME280;3227;42.654;23.360;2023-03-15T01:20:53;93381.69;;;8.46;47.66
6389;BME280;3227;42.654;23.360;2023-03-15T01:23:21;93360.50;;;8.39;47.74
6389;BME280;3227;42.654;23.360;2023-03-15T01:25:48;93387.50;;;8.59;48.18
6389;BME280;3227;42.654;23.360;2023-03-15T01:28:15;93322.38;;;8.20;47.99
6389;BME280;3227;42.654;23.360;2023-03-15T01:30:48;93392.56;;;8.63;47.77
6389;BME280;3227;42.654;23.360;2023-03-15T01:33:15;93388.31;;;8.64;48.44
6389;BME280;3227;42.654;23.360;2023-03-15T01:35:42;93373.00;;;8.61;48.07
6389;BME280;3227;42.654;23.360;2023-03-15T01:38:08;93371.31;;;8.60;48.17
6389;BME280;3227;42.654;23.360;2023-03-15T01:40:40;93372.06;;;8.69;47.58
6389;BME280;3227;42.654;23.360;2023-03-15T01:43:14;93383.97;;;8.69;48.06
6389;BME280;3227;42.654;23.360;2023-03-15T01:46:02;93373.00;;;8.64;48.02
6389;BME280;3227;42.654;23.360;2023-03-15T01:48:34;93365.38;;;8.59;48.22
6389;BME280;3227;42.654;23.360;2023-03-15T01:51:06;93371.19;;;8.72;47.88
6389;BME280;3227;42.654;23.360;2023-03-15T01:53:34;93324.63;;;8.50;48.07
6389;BME280;3227;42.654;23.360;2023-03-15T01:56:03;93353.28;;;8.73;48.21
6389;BME280;3227;42.654;23.360;2023-03-15T01:58:32;93351.63;;;8.69;48.49
6389;BME280;3227;42.654;23.360;2023-03-15T02:01:00;93355.97;;;8.64;48.80
6389;BME280;3227;42.654;23.360;2023-03-15T02:03:29;93361.06;;;8.64;48.70
6389;BME280;3227;42.654;23.360;2023-03-15T02:06:01;93254.53;;;8.02;48.98
6389;BME280;3227;42.654;23.360;2023-03-15T02:08:32;93323.78;;;8.50;48.72
6389;BME280;3227;42.654;23.360;2023-03-15T02:11:04;93333.84;;;8.63;48.60
6389;BME280;3227;42.654;23.360;2023-03-15T02:13:32;93288.19;;;8.39;48.29
6389;BME280;3227;42.654;23.360;2023-03-15T02:15:59;93326.97;;;8.67;48.43
6389;BME280;3227;42.654;23.360;2023-03-15T02:18:31;93326.09;;;8.69;48.77
6389;BME280;3227;42.654;23.360;2023-03-15T02:21:06;93321.03;;;8.66;49.70
6389;BME280;3227;42.654;23.360;2023-03-15T02:23:37;93319.41;;;8.59;49.96
6389;BME280;3227;42.654;23.360;2023-03-15T02:26:14;93310.16;;;8.51;49.37
6389;BME280;3227;42.654;23.360;2023-03-15T02:28:45;93315.22;;;8.54;49.55
6389;BME280;3227;42.654;23.360;2023-03-15T02:31:13;93314.47;;;8.47;50.28
6389;BME280;3227;42.654;23.360;2023-03-15T02:33:42;93297.56;;;8.35;50.31
6389;BME280;3227;42.654;23.360;2023-03-15T02:36:17;93323.00;;;8.43;50.85
6389;BME280;3227;42.654;23.360;2023-03-15T02:38:46;93310.25;;;8.42;50.44
6389;BME280;3227;42.654;23.360;2023-03-15T02:41:16;93321.31;;;8.40;50.77
6389;BME280;3227;42.654;23.360;2023-03-15T02:43:46;93323.94;;;8.34;51.50
6389;BME280;3227;42.654;23.360;2023-03-15T02:46:15;93318.91;;;8.31;51.35
6389;BME280;3227;42.654;23.360;2023-03-15T02:48:44;93310.38;;;8.29;51.28
6389;BME280;3227;42.654;23.360;2023-03-15T02:51:17;93256.34;;;7.91;51.03
6389;BME280;3227;42.654;23.360;2023-03-15T02:53:45;93308.09;;;8.05;50.63
6389;BME280;3227;42.654;23.360;2023-03-15T02:56:12;93309.03;;;7.95;50.63
6389;BME280;3227;42.654;23.360;2023-03-15T02:58:39;93287.78;;;7.94;50.11
6389;BME280;3227;42.654;23.360;2023-03-15T03:01:11;93298.66;;;8.12;50.17
6389;BME280;3227;42.654;23.360;2023-03-15T03:03:39;93292.72;;;8.10;50.23
6389;BME280;3227;42.654;23.360;2023-03-15T03:06:06;93304.53;;;8.17;50.80
6389;BME280;3227;42.654;23.360;2023-03-15T03:08:33;93301.16;;;8.16;50.60
6389;BME280;3227;42.654;23.360;2023-03-15T03:11:00;93296.03;;;8.18;51.02
6389;BME280;3227;42.654;23.360;2023-03-15T03:13:27;93249.63;;;7.84;49.48
6389;BME280;3227;42.654;23.360;2023-03-15T03:15:54;93288.53;;;8.04;51.36
6389;BME280;3227;42.654;23.360;2023-03-15T03:18:25;93274.91;;;8.05;51.50
6389;BME280;3227;42.654;23.360;2023-03-15T03:20:54;93253.00;;;7.86;52.22
6389;BME280;3227;42.654;23.360;2023-03-15T03:23:21;93287.72;;;8.00;52.34
6389;BME280;3227;42.654;23.360;2023-03-15T03:25:50;93279.31;;;7.91;53.25
6389;BME280;3227;42.654;23.360;2023-03-15T03:28:18;93276.75;;;7.91;52.54
6389;BME280;3227;42.654;23.360;2023-03-15T03:30:45;93271.69;;;7.88;53.18
6389;BME280;3227;42.654;23.360;2023-03-15T03:33:12;93254.81;;;7.76;52.88
6389;BME280;3227;42.654;23.360;2023-03-15T03:35:40;93264.91;;;7.85;53.56
6389;BME280;3227;42.654;23.360;2023-03-15T03:38:07;93259.91;;;7.78;53.52
6389;BME280;3227;42.654;23.360;2023-03-15T03:40:35;93262.44;;;7.81;52.91
6389;BME280;3227;42.654;23.360;2023-03-15T03:43:02;93259.88;;;7.81;53.34
6389;BME280;3227;42.654;23.360;2023-03-15T03:45:29;93257.28;;;7.84;52.67
6389;BME280;3227;42.654;23.360;2023-03-15T03:47:55;93230.25;;;7.68;53.38
6389;BME280;3227;42.654;23.360;2023-03-15T03:50:22;93253.03;;;7.83;52.67
6389;BME280;3227;42.654;23.360;2023-03-15T03:52:50;93258.13;;;7.86;52.72
6389;BME280;3227;42.654;23.360;2023-03-15T03:55:17;93256.47;;;7.80;53.76
6389;BME280;3227;42.654;23.360;2023-03-15T03:57:50;93261.59;;;7.77;53.46
6389;BME280;3227;42.654;23.360;2023-03-15T04:00:18;93249.69;;;7.79;53.18
6389;BME280;3227;42.654;23.360;2023-03-15T04:02:45;93255.56;;;7.84;52.16
6389;BME280;3227;42.654;23.360;2023-03-15T04:05:12;93245.38;;;7.86;51.97
6389;BME280;3227;42.654;23.360;2023-03-15T04:07:39;93238.56;;;7.86;52.62
6389;BME280;3227;42.654;23.360;2023-03-15T04:10:08;93235.94;;;7.91;52.77
6389;BME280;3227;42.654;23.360;2023-03-15T04:12:39;93229.22;;;7.84;53.06
6389;BME280;3227;42.654;23.360;2023-03-15T04:15:06;93225.00;;;7.83;53.74
6389;BME280;3227;42.654;23.360;2023-03-15T04:17:33;93241.13;;;7.85;53.99
6389;BME280;3227;42.654;23.360;2023-03-15T04:20:00;93232.63;;;7.86;53.56
6389;BME280;3227;42.654;23.360;2023-03-15T04:22:30;93230.91;;;7.85;53.94
6389;BME280;3227;42.654;23.360;2023-03-15T04:24:59;93188.84;;;7.46;53.22
6389;BME280;3227;42.654;23.360;2023-03-15T04:27:28;93217.56;;;7.64;52.61
6389;BME280;3227;42.654;23.360;2023-03-15T04:29:55;93236.88;;;7.84;52.78
6389;BME280;3227;42.654;23.360;2023-03-15T04:32:22;93232.59;;;7.89;52.34
6389;BME280;3227;42.654;23.360;2023-03-15T04:34:48;93225.75;;;7.91;51.37
6389;BME280;3227;42.654;23.360;2023-03-15T04:37:16;93221.56;;;7.87;50.95
6389;BME280;3227;42.654;23.360;2023-03-15T04:39:43;93228.38;;;7.85;50.72
6389;BME280;3227;42.654;23.360;2023-03-15T04:42:10;93228.44;;;7.79;50.72
6389;BME280;3227;42.654;23.360;2023-03-15T04:44:38;93231.84;;;7.76;50.54
6389;BME280;3227;42.654;23.360;2023-03-15T04:47:05;93211.59;;;7.66;49.70
6389;BME280;3227;42.654;23.360;2023-03-15T04:49:32;93200.56;;;7.63;50.15
6389;BME280;3227;42.654;23.360;2023-03-15T04:51:58;93237.78;;;7.80;49.42
6389;BME280;3227;42.654;23.360;2023-03-15T04:54:25;93232.69;;;7.80;49.42
6389;BME280;3227;42.654;23.360;2023-03-15T04:56:52;93241.94;;;7.90;49.35
6389;BME280;3227;42.654;23.360;2023-03-15T04:59:19;93239.34;;;7.91;48.89
6389;BME280;3227;42.654;23.360;2023-03-15T05:01:47;93226.59;;;7.93;49.01
6389;BME280;3227;42.654;23.360;2023-03-15T05:04:14;93232.63;;;7.86;49.37
6389;BME280;3227;42.654;23.360;2023-03-15T05:06:41;93234.16;;;7.99;49.66
6389;BME280;3227;42.654;23.360;2023-03-15T05:09:08;93235.72;;;8.12;49.26
6389;BME280;3227;42.654;23.360;2023-03-15T05:11:43;93227.97;;;8.21;50.26
6389;BME280;3227;42.654;23.360;2023-03-15T05:14:10;93232.00;;;8.40;50.99
6389;BME280;3227;42.654;23.360;2023-03-15T05:16:37;93166.63;;;8.30;49.51
6389;BME280;3227;42.654;23.360;2023-03-15T05:19:15;93222.53;;;9.07;48.81
6389;BME280;3227;42.654;23.360;2023-03-15T05:21:42;93229.69;;;9.39;48.62
6389;BME280;3227;42.654;23.360;2023-03-15T05:24:09;93226.84;;;9.55;49.05
6389;BME280;3227;42.654;23.360;2023-03-15T05:26:36;93226.03;;;9.55;49.15
6389;BME280;3227;42.654;23.360;2023-03-15T05:29:17;93222.78;;;9.45;48.12
6389;BME280;3227;42.654;23.360;2023-03-15T05:31:45;93223.88;;;9.31;47.61
6389;BME280;3227;42.654;23.360;2023-03-15T05:34:12;93220.59;;;9.23;47.88
6389;BME280;3227;42.654;23.360;2023-03-15T05:36:40;93202.09;;;9.07;47.96
6389;BME280;3227;42.654;23.360;2023-03-15T05:39:07;93212.28;;;9.11;48.50
6389;BME280;3227;42.654;23.360;2023-03-15T05:41:34;93148.31;;;8.64;48.26
6389;BME280;3227;42.654;23.360;2023-03-15T05:44:01;93220.25;;;8.90;48.65
6389;BME280;3227;42.654;23.360;2023-03-15T05:46:28;93196.63;;;8.74;48.93
6389;BME280;3227;42.654;23.360;2023-03-15T05:48:56;93181.44;;;8.65;49.20
6389;BME280;3227;42.654;23.360;2023-03-15T05:51:23;93204.28;;;8.76;48.77
6389;BME280;3227;42.654;23.360;2023-03-15T05:53:51;93207.03;;;8.64;48.62
6389;BME280;3227;42.654;23.360;2023-03-15T05:56:18;93212.09;;;8.65;48.74
6389;BME280;3227;42.654;23.360;2023-03-15T05:58:45;93195.16;;;8.60;48.87
6389;BME280;3227;42.654;23.360;2023-03-15T06:01:11;93218.00;;;8.69;48.45
6389;BME280;3227;42.654;23.360;2023-03-15T06:03:38;93217.19;;;8.65;48.02
6389;BME280;3227;42.654;23.360;2023-03-15T06:06:05;93224.44;;;8.96;47.21
6389;BME280;3227;42.654;23.360;2023-03-15T06:08:33;93173.47;;;8.88;47.10
6389;BME280;3227;42.654;23.360;2023-03-15T06:11:01;93217.13;;;9.28;45.97
6389;BME280;3227;42.654;23.360;2023-03-15T06:13:28;93207.59;;;9.38;46.29
6389;BME280;3227;42.654;23.360;2023-03-15T06:15:55;93204.91;;;9.45;46.40
6389;BME280;3227;42.654;23.360;2023-03-15T06:18:22;93158.75;;;9.51;45.47
6389;BME280;3227;42.654;23.360;2023-03-15T06:20:49;93208.44;;;10.30;44.19
6389;BME280;3227;42.654;23.360;2023-03-15T06:23:16;93213.03;;;10.55;43.44
6389;BME280;3227;42.654;23.360;2023-03-15T06:25:44;93199.88;;;10.72;42.38
6389;BME280;3227;42.654;23.360;2023-03-15T06:28:12;93209.03;;;10.82;42.37
6389;BME280;3227;42.654;23.360;2023-03-15T06:30:39;93208.47;;;10.71;41.80
6389;BME280;3227;42.654;23.360;2023-03-15T06:33:06;93194.91;;;10.64;41.75
6389;BME280;3227;42.654;23.360;2023-03-15T06:35:33;93193.66;;;10.45;42.90
6389;BME280;3227;42.654;23.360;2023-03-15T06:37:59;93190.06;;;10.52;42.33
6389;BME280;3227;42.654;23.360;2023-03-15T06:40:26;93215.00;;;10.82;43.11
6389;BME280;3227;42.654;23.360;2023-03-15T06:42:53;93209.63;;;10.94;43.20
6389;BME280;3227;42.654;23.360;2023-03-15T06:45:21;93207.09;;;10.93;42.22
6389;BME280;3227;42.654;23.360;2023-03-15T06:47:48;93197.22;;;11.13;42.66
6389;BME280;3227;42.654;23.360;2023-03-15T06:50:15;93196.41;;;11.47;42.52
6389;BME280;3227;42.654;23.360;2023-03-15T06:52:42;93203.47;;;11.71;41.30
6389;BME280;3227;42.654;23.360;2023-03-15T06:55:10;93178.50;;;11.79;40.61
6389;BME280;3227;42.654;23.360;2023-03-15T06:57:44;93150.03;;;11.88;39.72
6389;BME280;3227;42.654;23.360;2023-03-15T07:00:14;93198.94;;;12.14;39.51
6389;BME280;3227;42.654;23.360;2023-03-15T07:02:42;93187.06;;;11.78;40.97
6389;BME280;3227;42.654;23.360;2023-03-15T07:05:10;93156.75;;;11.26;40.54
6389;BME280;3227;42.654;23.360;2023-03-15T07:07:36;93198.75;;;11.56;40.54
6389;BME280;3227;42.654;23.360;2023-03-15T07:10:04;93073.63;;;11.02;40.36
6389;BME280;3227;42.654;23.360;2023-03-15T07:12:31;93196.38;;;11.82;40.24
6389;BME280;3227;42.654;23.360;2023-03-15T07:14:58;93182.44;;;11.58;41.06
6389;BME280;3227;42.654;23.360;2023-03-15T07:17:25;93159.38;;;10.87;42.13
6389;BME280;3227;42.654;23.360;2023-03-15T07:19:53;93184.50;;;11.10;42.01
6389;BME280;3227;42.654;23.360;2023-03-15T07:22:20;93191.41;;;11.05;42.19
6389;BME280;3227;42.654;23.360;2023-03-15T07:24:47;93188.44;;;11.23;42.12
6389;BME280;3227;42.654;23.360;2023-03-15T07:27:14;93188.09;;;11.03;42.31
6389;BME280;3227;42.654;23.360;2023-03-15T07:29:41;93187.22;;;11.02;42.37
6389;BME280;3227;42.654;23.360;2023-03-15T07:32:08;93187.06;;;11.10;41.83
6389;BME280;3227;42.654;23.360;2023-03-15T07:34:35;93182.59;;;10.81;42.03
6389;BME280;3227;42.654;23.360;2023-03-15T07:37:03;93182.38;;;10.90;41.68
6389;BME280;3227;42.654;23.360;2023-03-15T07:39:30;93200.81;;;11.06;41.55
6389;BME280;3227;42.654;23.360;2023-03-15T07:41:57;93178.53;;;11.43;40.95
6389;BME280;3227;42.654;23.360;2023-03-15T07:44:24;93169.66;;;11.91;39.10
6389;BME280;3227;42.654;23.360;2023-03-15T07:46:51;93188.69;;;12.44;39.14
6389;BME280;3227;42.654;23.360;2023-03-15T07:49:19;93194.72;;;12.72;38.23
6389;BME280;3227;42.654;23.360;2023-03-15T07:51:46;93189.88;;;12.62;37.45
6389;BME280;3227;42.654;23.360;2023-03-15T07:54:14;93180.41;;;12.34;38.13
6389;BME280;3227;42.654;23.360;2023-03-15T07:56:41;93183.56;;;12.13;38.65
6389;BME280;3227;42.654;23.360;2023-03-15T07:59:08;93185.41;;;11.77;39.18
6389;BME280;3227;42.654;23.360;2023-03-15T08:01:35;93160.81;;;11.34;39.65
6389;BME280;3227;42.654;23.360;2023-03-15T08:04:02;93184.53;;;11.07;40.46
6389;BME280;3227;42.654;23.360;2023-03-15T08:06:29;93179.59;;;10.99;41.85
6389;BME280;3227;42.654;23.360;2023-03-15T08:08:56;93190.34;;;11.15;41.86
6389;BME280;3227;42.654;23.360;2023-03-15T08:11:24;93164.03;;;11.07;42.64
6389;BME280;3227;42.654;23.360;2023-03-15T08:13:51;93177.69;;;11.43;42.19
6389;BME280;3227;42.654;23.360;2023-03-15T08:16:17;93153.84;;;11.39;41.96
6389;BME280;3227;42.654;23.360;2023-03-15T08:18:44;93154.94;;;11.63;40.91
6389;BME280;3227;42.654;23.360;2023-03-15T08:21:11;93157.69;;;11.90;40.79
6389;BME280;3227;42.654;23.360;2023-03-15T08:23:38;93156.41;;;12.04;40.36
6389;BME280;3227;42.654;23.360;2023-03-15T08:26:05;93147.16;;;12.30;40.00
6389;BME280;3227;42.654;23.360;2023-03-15T08:28:33;93148.03;;;12.58;39.82
6389;BME280;3227;42.654;23.360;2023-03-15T08:30:59;93154.00;;;12.86;38.62
6389;BME280;3227;42.654;23.360;2023-03-15T08:33:26;93146.53;;;13.07;38.74
6389;BME280;3227;42.654;23.360;2023-03-15T08:35:54;93153.59;;;13.00;38.05
6389;BME280;3227;42.654;23.360;2023-03-15T08:38:21;93150.75;;;12.81;37.89
6389;BME280;3227;42.654;23.360;2023-03-15T08:40:48;93164.28;;;12.86;38.58
6389;BME280;3227;42.654;23.360;2023-03-15T08:43:15;93157.91;;;13.00;38.57
6389;BME280;3227;42.654;23.360;2023-03-15T08:45:43;93143.03;;;13.36;38.41
6389;BME280;3227;42.654;23.360;2023-03-15T08:48:10;93131.22;;;13.56;37.82
6389;BME280;3227;42.654;23.360;2023-03-15T08:50:38;93122.16;;;13.45;37.47
6389;BME280;3227;42.654;23.360;2023-03-15T08:53:05;93163.56;;;13.37;38.35
6389;BME280;3227;42.654;23.360;2023-03-15T08:55:32;93142.59;;;12.95;37.83
6389;BME280;3227;42.654;23.360;2023-03-15T08:58:01;93160.13;;;12.54;39.02
6389;BME280;3227;42.654;23.360;2023-03-15T09:00:28;93162.34;;;12.67;39.33
6389;BME280;3227;42.654;23.360;2023-03-15T09:02:57;93156.47;;;12.91;38.80
6389;BME280;3227;42.654;23.360;2023-03-15T09:05:24;93111.19;;;12.85;38.82
6389;BME280;3227;42.654;23.360;2023-03-15T09:07:51;93153.78;;;13.48;38.21
6389;BME280;3227;42.654;23.360;2023-03-15T09:10:18;93145.75;;;13.57;36.98
6389;BME280;3227;42.654;23.360;2023-03-15T09:12:47;93151.50;;;13.65;37.48
6389;BME280;3227;42.654;23.360;2023-03-15T09:15:15;93161.41;;;13.25;37.66
6389;BME280;3227;42.654;23.360;2023-03-15T09:17:43;93159.81;;;12.65;38.54
6389;BME280;3227;42.654;23.360;2023-03-15T09:20:12;93157.50;;;12.56;38.74
6389;BME280;3227;42.654;23.360;2023-03-15T09:22:41;93157.75;;;12.48;38.94
6389;BME280;3227;42.654;23.360;2023-03-15T09:25:08;93156.91;;;12.48;39.69
6389;BME280;3227;42.654;23.360;2023-03-15T09:27:38;93147.28;;;12.25;39.70
6389;BME280;3227;42.654;23.360;2023-03-15T09:30:06;93156.19;;;12.43;39.77
6389;BME280;3227;42.654;23.360;2023-03-15T09:32:33;93151.09;;;12.69;39.99
6389;BME280;3227;42.654;23.360;2023-03-15T09:35:01;93150.47;;;12.90;39.09
6389;BME280;3227;42.654;23.360;2023-03-15T09:37:30;93148.03;;;12.86;38.48
6389;BME280;3227;42.654;23.360;2023-03-15T09:39:57;93148.03;;;12.86;39.74
6389;BME280;3227;42.654;23.360;2023-03-15T09:42:29;93139.63;;;13.09;38.89
6389;BME280;3227;42.654;23.360;2023-03-15T09:45:05;93133.00;;;13.28;39.30
6389;BME280;3227;42.654;23.360;2023-03-15T09:47:43;93129.53;;;13.29;38.51
6389;BME280;3227;42.654;23.360;2023-03-15T09:50:17;93080.78;;;13.00;37.82
6389;BME280;3227;42.654;23.360;2023-03-15T09:52:48;93110.59;;;13.31;37.80
6389;BME280;3227;42.654;23.360;2023-03-15T09:55:19;93122.59;;;13.57;37.88
6389;BME280;3227;42.654;23.360;2023-03-15T09:57:49;93112.41;;;13.79;38.12
6389;BME280;3227;42.654;23.360;2023-03-15T10:00:20;93115.13;;;13.99;37.68
6389;BME280;3227;42.654;23.360;2023-03-15T10:02:54;93119.81;;;14.12;36.71
6389;BME280;3227;42.654;23.360;2023-03-15T10:05:30;93121.00;;;13.78;37.15
6389;BME280;3227;42.654;23.360;2023-03-15T10:07:59;93121.19;;;13.22;37.71
6389;BME280;3227;42.654;23.360;2023-03-15T10:10:30;93128.03;;;12.95;39.14
6389;BME280;3227;42.654;23.360;2023-03-15T10:13:06;93112.06;;;12.58;39.27
6389;BME280;3227;42.654;23.360;2023-03-15T10:15:48;93104.72;;;12.46;40.33
6389;BME280;3227;42.654;23.360;2023-03-15T10:18:30;93126.50;;;12.62;39.89
6389;BME280;3227;42.654;23.360;2023-03-15T10:21:04;93121.84;;;12.75;39.86
6389;BME280;3227;42.654;23.360;2023-03-15T10:23:45;93127.53;;;12.84;39.25
6389;BME280;3227;42.654;23.360;2023-03-15T10:26:18;93121.34;;;12.90;39.63
6389;BME280;3227;42.654;23.360;2023-03-15T10:28:47;93082.31;;;12.77;39.23
6389;BME280;3227;42.654;23.360;2023-03-15T10:31:17;93114.84;;;13.06;39.31
6389;BME280;3227;42.654;23.360;2023-03-15T10:33:45;93086.22;;;12.90;39.43
6389;BME280;3227;42.654;23.360;2023-03-15T10:36:17;93116.84;;;12.96;38.86
6389;BME280;3227;42.654;23.360;2023-03-15T10:38:46;93060.09;;;12.50;39.56
6389;BME280;3227;42.654;23.360;2023-03-15T10:41:27;93119.38;;;12.98;39.81
6389;BME280;3227;42.654;23.360;2023-03-15T10:43:58;93119.47;;;13.23;39.67
6389;BME280;3227;42.654;23.360;2023-03-15T10:46:26;93113.63;;;13.43;37.92
6389;BME280;3227;42.654;23.360;2023-03-15T10:48:56;93093.91;;;13.43;37.89
6389;BME280;3227;42.654;23.360;2023-03-15T10:51:25;93094.13;;;13.37;38.25
6389;BME280;3227;42.654;23.360;2023-03-15T10:53:57;93113.84;;;13.37;38.06
6389;BME280;3227;42.654;23.360;2023-03-15T10:56:26;93110.34;;;13.39;38.29
6389;BME280;3227;42.654;23.360;2023-03-15T10:58:55;93107.94;;;13.59;38.25
6389;BME280;3227;42.654;23.360;2023-03-15T11:01:25;93103.16;;;13.74;38.13
6389;BME280;3227;42.654;23.360;2023-03-15T11:04:13;93107.53;;;13.95;37.50
6389;BME280;3227;42.654;23.360;2023-03-15T11:06:44;93084.88;;;13.56;37.24
6389;BME280;3227;42.654;23.360;2023-03-15T11:09:14;93101.94;;;13.59;38.29
6389;BME280;3227;42.654;23.360;2023-03-15T11:11:51;93077.00;;;13.36;38.04
6389;BME280;3227;42.654;23.360;2023-03-15T11:14:19;93085.59;;;13.35;38.03
6389;BME280;3227;42.654;23.360;2023-03-15T11:16:47;93074.41;;;13.36;38.66
6389;BME280;3227;42.654;23.360;2023-03-15T11:19:17;93066.63;;;13.39;38.44
6389;BME280;3227;42.654;23.360;2023-03-15T11:21:46;93097.81;;;13.55;38.31
6389;BME280;3227;42.654;23.360;2023-03-15T11:24:23;93099.88;;;13.44;38.20
6389;BME280;3227;42.654;23.360;2023-03-15T11:26:51;93099.16;;;13.40;37.51
6389;BME280;3227;42.654;23.360;2023-03-15T11:29:24;93106.88;;;13.40;38.28
6389;BME280;3227;42.654;23.360;2023-03-15T11:31:53;93069.84;;;13.19;38.53
6389;BME280;3227;42.654;23.360;2023-03-15T11:34:36;93102.41;;;13.45;38.05
6389;BME280;3227;42.654;23.360;2023-03-15T11:37:10;93086.91;;;13.22;38.65
6389;BME280;3227;42.654;23.360;2023-03-15T11:39:43;93088.00;;;13.15;38.97
6389;BME280;3227;42.654;23.360;2023-03-15T11:42:17;93080.03;;;13.22;39.08
6389;BME280;3227;42.654;23.360;2023-03-15T11:44:47;93090.91;;;13.30;38.39
6389;BME280;3227;42.654;23.360;2023-03-15T11:47:22;93095.50;;;13.47;38.48
6389;BME280;3227;42.654;23.360;2023-03-15T11:49:52;93086.44;;;13.60;38.60
6389;BME280;3227;42.654;23.360;2023-03-15T11:52:21;93080.00;;;13.74;38.13
6389;BME280;3227;42.654;23.360;2023-03-15T11:54:51;93088.84;;;13.90;37.81
6389;BME280;3227;42.654;23.360;2023-03-15T11:57:42;93079.56;;;14.09;37.93
6389;BME280;3227;42.654;23.360;2023-03-15T12:00:54;93086.56;;;14.29;37.78
6389;BME280;3227;42.654;23.360;2023-03-15T12:03:30;93082.66;;;14.42;36.98
6389;BME280;3227;42.654;23.360;2023-03-15T12:06:03;93070.75;;;14.39;36.02
6389;BME280;3227;42.654;23.360;2023-03-15T12:08:42;93040.16;;;14.07;36.93
6389;BME280;3227;42.654;23.360;2023-03-15T12:11:12;93061.78;;;14.25;36.79
6389;BME280;3227;42.654;23.360;2023-03-15T12:14:03;93033.97;;;14.11;37.54
6389;BME280;3227;42.654;23.360;2023-03-15T12:16:41;93055.69;;;14.27;37.30
6389;BME280;3227;42.654;23.360;2023-03-15T12:19:24;93049.09;;;14.20;36.66
6389;BME280;3227;42.654;23.360;2023-03-15T12:21:52;93049.00;;;14.00;36.92
6389;BME280;3227;42.654;23.360;2023-03-15T12:24:23;93054.03;;;14.03;38.22
6389;BME280;3227;42.654;23.360;2023-03-15T12:27:00;93056.94;;;14.17;37.90
6389;BME280;3227;42.654;23.360;2023-03-15T12:29:30;93051.16;;;14.10;37.34
6389;BME280;3227;42.654;23.360;2023-03-15T12:32:06;93049.72;;;14.03;36.39
6389;BME280;3227;42.654;23.360;2023-03-15T12:34:41;92946.81;;;13.32;37.84
6389;BME280;3227;42.654;23.360;2023-03-15T12:37:13;93051.91;;;13.91;36.92
6389;BME280;3227;42.654;23.360;2023-03-15T12:39:45;93034.66;;;13.69;37.94
6389;BME280;3227;42.654;23.360;2023-03-15T12:45:41;93049.34;;;13.91;38.39
6389;BME280;3227;42.654;23.360;2023-03-15T12:48:29;93043.88;;;14.00;37.15
6389;BME280;3227;42.654;23.360;2023-03-15T12:50:58;93039.41;;;14.03;37.42
6389;BME280;3227;42.654;23.360;2023-03-15T12:53:35;93041.09;;;14.04;37.26
6389;BME280;3227;42.654;23.360;2023-03-15T12:56:32;93042.00;;;14.03;37.69
6389;BME280;3227;42.654;23.360;2023-03-15T12:59:04;92993.59;;;13.66;37.98
6389;BME280;3227;42.654;23.360;2023-03-15T13:01:37;93045.78;;;13.93;37.76
6389;BME280;3227;42.654;23.360;2023-03-15T13:04:03;93022.47;;;13.75;38.19
6389;BME280;3227;42.654;23.360;2023-03-15T13:06:40;93043.50;;;13.86;37.83
6389;BME280;3227;42.654;23.360;2023-03-15T13:09:17;93039.25;;;13.85;38.82
6389;BME280;3227;42.654;23.360;2023-03-15T13:11:51;93017.19;;;13.78;40.15
6389;BME280;3227;42.654;23.360;2023-03-15T13:14:33;93031.31;;;13.91;41.80
6389;BME280;3227;42.654;23.360;2023-03-15T13:17:12;93017.25;;;13.76;42.07
6389;BME280;3227;42.654;23.360;2023-03-15T13:19:44;93036.91;;;13.79;42.79
6389;BME280;3227;42.654;23.360;2023-03-15T13:22:17;93032.25;;;13.88;42.83
6389;BME280;3227;42.654;23.360;2023-03-15T13:24:51;93037.13;;;13.96;42.57
6389;BME280;3227;42.654;23.360;2023-03-15T13:27:33;93031.94;;;13.97;43.11
6389;BME280;3227;42.654;23.360;2023-03-15T13:30:22;93044.00;;;13.95;43.15
6389;BME280;3227;42.654;23.360;2023-03-15T13:33:03;93046.06;;;13.86;43.01